Airfield :
LOGIN :

Register | Disclaimer

   EN    FR    IT 

 










Legend :    VFR   Marginal VFR   IFR   Intensive IFR   Very Intensive IFR
Visi :
Ceiling :
>= 8 km
>= 3000ft
5 to 8 km
1000 to 3000 ft
1500m to 5 km
500 to 1000 ft
800 to 1500m
200 to 500 ft
< 800m
< 200 ft
Symbols :   Thunderstorms  Fog  Heavy snow  Heavy precipitations  Wind > 20 kt
SIGMETs :     Misc.  Thunderstorms  Icing  Turbulence  Mountain Waves  Volcanic Ashes







- Airport Elevation : 1197 ft
- IATA code : SPM


ETAD - Spangdahlem Ab

CURRENT METAR :
  • 240758Z AUTO 23015KT 9999 OVC030 16/09 A3008 RMK AO2 SLP166 T01640088 TSNO

EXPIRED METARs :
  • 240738Z AUTO 25017G19KT 9999 OVC030 16/08 A3008 RMK AO2 SLP168 TSNO
  • 240728Z AUTO 28015KT 9999 OVC029 16/08 A3009 RMK AO2 SLP170 TSNO
  • 240658Z AUTO 25013KT 9999 OVC030 15/09 A3009 RMK AO2 SLP170 T01500087 TSNO
  • 240648Z AUTO 24014KT 9999 OVC030 15/09 A3008 RMK AO2 SLP166 TSNO
  • 240618Z AUTO 25010KT 9999 OVC029 15/09 A3008 RMK AO2 SLP166 TSNO
  • 240558Z AUTO 25009KT 9999 OVC029 14/10 A3008 RMK AO2 SLP166 T01430097 10147 20123 58001 TSNO

TAF AMD TAF ETAD
Valid from the 24 at 08:00 until the 25 at 09:00 UTC


240801Z 2408/2509 25009KT 9999 OVC025 QNH2999INS
TEMPO 2408/2417 25012G18KT
BECMG 2418/2419 VRB06KT 9999 BKN050 QNH2998INS
BECMG 2505/2506 24009KT 9999 FEW020 BKN040 QNH2997INS TX24/2415Z TN09/2504Z
No reported NOTAMs for that airfield.



MET'MAP, your aeronautical weather chart ! - Copyright ORBIFLY December 2007 - Disclaimer

ORBIFLY MET'MAP TEAM :

Programming & Development : Alexandra Zaïnal
Concept & Development : Baudouin d'Aumeries
Co-Development & Prog : Marc-Olivier Méhu
Technical & hardware support : Manuel Goepfert

Contact : metmap@orbifly.com




SOURCES & CREDITS :

   NOAA